sensor_id;sensor_type;location;lat;lon;timestamp;P1;durP1;ratioP1;P2;durP2;ratioP2
8604;SDS011;4340;52.516;13.468;2023-01-23T00:00:14;27.87;;;16.50;;
8604;SDS011;4340;52.516;13.468;2023-01-23T00:02:41;28.40;;;15.90;;
8604;SDS011;4340;52.516;13.468;2023-01-23T00:05:08;28.90;;;16.10;;
8604;SDS011;4340;52.516;13.468;2023-01-23T00:07:35;32.97;;;18.40;;
8604;SDS011;4340;52.516;13.468;2023-01-23T00:10:03;32.43;;;16.60;;
8604;SDS011;4340;52.516;13.468;2023-01-23T00:12:30;32.93;;;16.00;;
8604;SDS011;4340;52.516;13.468;2023-01-23T00:14:56;30.10;;;17.60;;
8604;SDS011;4340;52.516;13.468;2023-01-23T00:17:23;30.30;;;17.87;;
8604;SDS011;4340;52.516;13.468;2023-01-23T00:19:51;27.73;;;16.00;;
8604;SDS011;4340;52.516;13.468;2023-01-23T00:22:18;30.60;;;17.30;;
8604;SDS011;4340;52.516;13.468;2023-01-23T00:24:45;30.20;;;17.17;;
8604;SDS011;4340;52.516;13.468;2023-01-23T00:27:12;33.97;;;16.77;;
8604;SDS011;4340;52.516;13.468;2023-01-23T00:29:39;29.90;;;17.70;;
8604;SDS011;4340;52.516;13.468;2023-01-23T00:32:06;29.40;;;16.90;;
8604;SDS011;4340;52.516;13.468;2023-01-23T00:34:32;33.40;;;15.63;;
8604;SDS011;4340;52.516;13.468;2023-01-23T00:36:59;31.80;;;17.33;;
8604;SDS011;4340;52.516;13.468;2023-01-23T00:39:25;33.40;;;16.60;;
8604;SDS011;4340;52.516;13.468;2023-01-23T00:41:52;31.50;;;17.20;;
8604;SDS011;4340;52.516;13.468;2023-01-23T00:44:20;32.37;;;17.33;;
8604;SDS011;4340;52.516;13.468;2023-01-23T00:46:46;31.60;;;16.83;;
8604;SDS011;4340;52.516;13.468;2023-01-23T00:49:13;30.93;;;17.03;;
8604;SDS011;4340;52.516;13.468;2023-01-23T00:51:41;31.70;;;17.90;;
8604;SDS011;4340;52.516;13.468;2023-01-23T00:54:08;31.50;;;17.00;;
8604;SDS011;4340;52.516;13.468;2023-01-23T00:56:34;32.37;;;17.60;;
8604;SDS011;4340;52.516;13.468;2023-01-23T00:59:01;27.90;;;15.60;;
8604;SDS011;4340;52.516;13.468;2023-01-23T01:01:29;32.20;;;16.10;;
8604;SDS011;4340;52.516;13.468;2023-01-23T01:03:56;33.40;;;18.50;;
8604;SDS011;4340;52.516;13.468;2023-01-23T01:06:23;30.90;;;17.50;;
8604;SDS011;4340;52.516;13.468;2023-01-23T01:08:50;32.83;;;16.60;;
8604;SDS011;4340;52.516;13.468;2023-01-23T01:11:17;32.37;;;17.03;;
8604;SDS011;4340;52.516;13.468;2023-01-23T01:13:43;34.30;;;18.50;;
8604;SDS011;4340;52.516;13.468;2023-01-23T01:16:10;33.50;;;16.20;;
8604;SDS011;4340;52.516;13.468;2023-01-23T01:18:38;36.37;;;16.33;;
8604;SDS011;4340;52.516;13.468;2023-01-23T01:21:06;34.53;;;16.53;;
8604;SDS011;4340;52.516;13.468;2023-01-23T01:23:34;33.77;;;17.40;;
8604;SDS011;4340;52.516;13.468;2023-01-23T01:26:00;37.90;;;18.00;;
8604;SDS011;4340;52.516;13.468;2023-01-23T01:28:28;35.23;;;17.17;;
8604;SDS011;4340;52.516;13.468;2023-01-23T01:30:57;36.43;;;19.63;;
8604;SDS011;4340;52.516;13.468;2023-01-23T01:33:28;35.03;;;18.60;;
8604;SDS011;4340;52.516;13.468;2023-01-23T01:35:56;32.90;;;17.67;;
8604;SDS011;4340;52.516;13.468;2023-01-23T01:38:22;31.83;;;17.07;;
8604;SDS011;4340;52.516;13.468;2023-01-23T01:40:49;34.40;;;17.50;;
8604;SDS011;4340;52.516;13.468;2023-01-23T01:43:17;29.90;;;16.70;;
8604;SDS011;4340;52.516;13.468;2023-01-23T01:45:58;29.97;;;16.27;;
8604;SDS011;4340;52.516;13.468;2023-01-23T01:48:31;35.00;;;17.57;;
8604;SDS011;4340;52.516;13.468;2023-01-23T01:51:02;35.80;;;18.57;;
8604;SDS011;4340;52.516;13.468;2023-01-23T01:53:32;35.30;;;17.27;;
8604;SDS011;4340;52.516;13.468;2023-01-23T01:56:00;36.07;;;18.20;;
8604;SDS011;4340;52.516;13.468;2023-01-23T01:58:28;31.90;;;16.90;;
8604;SDS011;4340;52.516;13.468;2023-01-23T02:00:55;35.27;;;18.17;;
8604;SDS011;4340;52.516;13.468;2023-01-23T02:03:22;36.83;;;18.23;;
8604;SDS011;4340;52.516;13.468;2023-01-23T02:05:50;35.50;;;17.43;;
8604;SDS011;4340;52.516;13.468;2023-01-23T02:08:20;35.73;;;18.10;;
8604;SDS011;4340;52.516;13.468;2023-01-23T02:10:51;34.43;;;17.60;;
8604;SDS011;4340;52.516;13.468;2023-01-23T02:13:20;37.20;;;18.10;;
8604;SDS011;4340;52.516;13.468;2023-01-23T02:15:50;36.43;;;17.20;;
8604;SDS011;4340;52.516;13.468;2023-01-23T02:18:18;38.73;;;18.20;;
8604;SDS011;4340;52.516;13.468;2023-01-23T02:20:46;36.90;;;17.67;;
8604;SDS011;4340;52.516;13.468;2023-01-23T02:23:17;36.33;;;17.80;;
8604;SDS011;4340;52.516;13.468;2023-01-23T02:25:55;33.57;;;17.10;;
8604;SDS011;4340;52.516;13.468;2023-01-23T02:28:35;35.20;;;18.00;;
8604;SDS011;4340;52.516;13.468;2023-01-23T02:31:04;31.93;;;16.60;;
8604;SDS011;4340;52.516;13.468;2023-01-23T02:33:50;33.40;;;16.90;;
8604;SDS011;4340;52.516;13.468;2023-01-23T02:36:19;33.67;;;17.53;;
8604;SDS011;4340;52.516;13.468;2023-01-23T02:38:49;33.37;;;17.00;;
8604;SDS011;4340;52.516;13.468;2023-01-23T02:41:22;32.63;;;17.23;;
8604;SDS011;4340;52.516;13.468;2023-01-23T02:43:53;32.90;;;17.93;;
8604;SDS011;4340;52.516;13.468;2023-01-23T02:46:22;32.67;;;16.40;;
8604;SDS011;4340;52.516;13.468;2023-01-23T02:48:49;32.20;;;17.00;;
8604;SDS011;4340;52.516;13.468;2023-01-23T02:51:16;34.77;;;18.43;;
8604;SDS011;4340;52.516;13.468;2023-01-23T02:53:44;31.60;;;16.73;;
8604;SDS011;4340;52.516;13.468;2023-01-23T02:56:11;35.93;;;17.63;;
8604;SDS011;4340;52.516;13.468;2023-01-23T02:58:39;33.30;;;16.57;;
8604;SDS011;4340;52.516;13.468;2023-01-23T03:01:24;32.80;;;16.13;;
8604;SDS011;4340;52.516;13.468;2023-01-23T03:03:51;35.90;;;17.40;;
8604;SDS011;4340;52.516;13.468;2023-01-23T03:06:20;30.97;;;17.30;;
8604;SDS011;4340;52.516;13.468;2023-01-23T03:08:48;32.57;;;16.93;;
8604;SDS011;4340;52.516;13.468;2023-01-23T03:11:15;30.60;;;16.87;;
8604;SDS011;4340;52.516;13.468;2023-01-23T03:13:44;31.07;;;18.40;;
8604;SDS011;4340;52.516;13.468;2023-01-23T03:16:11;31.93;;;17.87;;
8604;SDS011;4340;52.516;13.468;2023-01-23T03:18:38;30.57;;;16.20;;
8604;SDS011;4340;52.516;13.468;2023-01-23T03:21:05;31.77;;;16.90;;
8604;SDS011;4340;52.516;13.468;2023-01-23T03:23:32;32.40;;;18.50;;
8604;SDS011;4340;52.516;13.468;2023-01-23T03:26:00;34.10;;;17.27;;
8604;SDS011;4340;52.516;13.468;2023-01-23T03:28:27;30.27;;;16.80;;
8604;SDS011;4340;52.516;13.468;2023-01-23T03:31:13;34.00;;;17.00;;
8604;SDS011;4340;52.516;13.468;2023-01-23T03:33:40;29.67;;;16.43;;
8604;SDS011;4340;52.516;13.468;2023-01-23T03:36:08;30.30;;;17.30;;
8604;SDS011;4340;52.516;13.468;2023-01-23T03:38:34;33.43;;;16.83;;
8604;SDS011;4340;52.516;13.468;2023-01-23T03:41:01;36.70;;;16.40;;
8604;SDS011;4340;52.516;13.468;2023-01-23T03:43:46;30.70;;;16.43;;
8604;SDS011;4340;52.516;13.468;2023-01-23T03:46:14;36.30;;;16.43;;
8604;SDS011;4340;52.516;13.468;2023-01-23T03:48:40;33.07;;;17.83;;
8604;SDS011;4340;52.516;13.468;2023-01-23T03:51:07;33.00;;;18.53;;
8604;SDS011;4340;52.516;13.468;2023-01-23T03:53:33;31.40;;;16.77;;
8604;SDS011;4340;52.516;13.468;2023-01-23T03:56:00;31.13;;;17.50;;
8604;SDS011;4340;52.516;13.468;2023-01-23T03:58:26;35.23;;;17.77;;
8604;SDS011;4340;52.516;13.468;2023-01-23T04:00:54;31.57;;;17.40;;
8604;SDS011;4340;52.516;13.468;2023-01-23T04:03:22;29.73;;;17.13;;
8604;SDS011;4340;52.516;13.468;2023-01-23T04:05:53;35.70;;;17.73;;
8604;SDS011;4340;52.516;13.468;2023-01-23T04:08:20;32.20;;;18.07;;
8604;SDS011;4340;52.516;13.468;2023-01-23T04:10:47;32.70;;;17.30;;
8604;SDS011;4340;52.516;13.468;2023-01-23T04:13:14;31.90;;;17.60;;
8604;SDS011;4340;52.516;13.468;2023-01-23T04:15:41;32.63;;;17.57;;
8604;SDS011;4340;52.516;13.468;2023-01-23T04:18:13;33.90;;;18.20;;
8604;SDS011;4340;52.516;13.468;2023-01-23T04:20:41;31.60;;;17.30;;
8604;SDS011;4340;52.516;13.468;2023-01-23T04:23:08;32.07;;;17.80;;
8604;SDS011;4340;52.516;13.468;2023-01-23T04:25:34;35.27;;;17.70;;
8604;SDS011;4340;52.516;13.468;2023-01-23T04:28:01;32.77;;;17.97;;
8604;SDS011;4340;52.516;13.468;2023-01-23T04:30:27;33.90;;;17.17;;
8604;SDS011;4340;52.516;13.468;2023-01-23T04:32:54;34.03;;;17.70;;
8604;SDS011;4340;52.516;13.468;2023-01-23T04:35:20;35.60;;;17.73;;
8604;SDS011;4340;52.516;13.468;2023-01-23T04:37:48;32.30;;;17.47;;
8604;SDS011;4340;52.516;13.468;2023-01-23T04:40:15;33.47;;;17.83;;
8604;SDS011;4340;52.516;13.468;2023-01-23T04:42:41;29.93;;;15.70;;
8604;SDS011;4340;52.516;13.468;2023-01-23T04:45:08;34.20;;;17.00;;
8604;SDS011;4340;52.516;13.468;2023-01-23T04:47:36;34.70;;;18.63;;
8604;SDS011;4340;52.516;13.468;2023-01-23T04:50:03;35.17;;;18.57;;
8604;SDS011;4340;52.516;13.468;2023-01-23T04:52:30;34.80;;;17.63;;
8604;SDS011;4340;52.516;13.468;2023-01-23T04:54:58;34.93;;;18.63;;
8604;SDS011;4340;52.516;13.468;2023-01-23T04:57:24;31.10;;;17.50;;
8604;SDS011;4340;52.516;13.468;2023-01-23T04:59:51;40.57;;;18.67;;
8604;SDS011;4340;52.516;13.468;2023-01-23T05:02:18;34.60;;;18.70;;
8604;SDS011;4340;52.516;13.468;2023-01-23T05:04:44;35.83;;;18.63;;
8604;SDS011;4340;52.516;13.468;2023-01-23T05:07:11;36.87;;;18.23;;
8604;SDS011;4340;52.516;13.468;2023-01-23T05:09:40;38.90;;;17.57;;
8604;SDS011;4340;52.516;13.468;2023-01-23T05:12:08;37.20;;;18.87;;
8604;SDS011;4340;52.516;13.468;2023-01-23T05:14:34;34.80;;;19.30;;
8604;SDS011;4340;52.516;13.468;2023-01-23T05:17:02;38.53;;;19.67;;
8604;SDS011;4340;52.516;13.468;2023-01-23T05:19:29;37.03;;;19.77;;
8604;SDS011;4340;52.516;13.468;2023-01-23T05:21:56;38.67;;;18.77;;
8604;SDS011;4340;52.516;13.468;2023-01-23T05:24:23;33.40;;;17.97;;
8604;SDS011;4340;52.516;13.468;2023-01-23T05:26:50;40.40;;;20.00;;
8604;SDS011;4340;52.516;13.468;2023-01-23T05:29:17;35.60;;;19.70;;
8604;SDS011;4340;52.516;13.468;2023-01-23T05:31:44;38.33;;;17.90;;
8604;SDS011;4340;52.516;13.468;2023-01-23T05:34:10;35.80;;;18.13;;
8604;SDS011;4340;52.516;13.468;2023-01-23T05:36:46;38.83;;;18.30;;
8604;SDS011;4340;52.516;13.468;2023-01-23T05:39:12;37.40;;;19.43;;
8604;SDS011;4340;52.516;13.468;2023-01-23T05:41:39;36.67;;;18.47;;
8604;SDS011;4340;52.516;13.468;2023-01-23T05:44:06;35.27;;;19.87;;
8604;SDS011;4340;52.516;13.468;2023-01-23T05:46:33;33.23;;;18.93;;
8604;SDS011;4340;52.516;13.468;2023-01-23T05:49:00;36.63;;;19.00;;
8604;SDS011;4340;52.516;13.468;2023-01-23T05:51:26;36.53;;;18.97;;
8604;SDS011;4340;52.516;13.468;2023-01-23T05:53:56;35.47;;;18.60;;
8604;SDS011;4340;52.516;13.468;2023-01-23T05:56:23;34.03;;;18.40;;
8604;SDS011;4340;52.516;13.468;2023-01-23T05:58:50;36.83;;;20.20;;
8604;SDS011;4340;52.516;13.468;2023-01-23T06:01:17;38.43;;;19.87;;
8604;SDS011;4340;52.516;13.468;2023-01-23T06:03:45;38.00;;;20.27;;
8604;SDS011;4340;52.516;13.468;2023-01-23T06:06:12;39.53;;;18.80;;
8604;SDS011;4340;52.516;13.468;2023-01-23T06:08:39;38.00;;;19.50;;
8604;SDS011;4340;52.516;13.468;2023-01-23T06:11:05;39.37;;;18.90;;
8604;SDS011;4340;52.516;13.468;2023-01-23T06:13:32;35.93;;;18.17;;
8604;SDS011;4340;52.516;13.468;2023-01-23T06:15:58;34.50;;;18.70;;
8604;SDS011;4340;52.516;13.468;2023-01-23T06:18:25;39.60;;;19.80;;
8604;SDS011;4340;52.516;13.468;2023-01-23T06:20:57;35.23;;;19.20;;
8604;SDS011;4340;52.516;13.468;2023-01-23T06:23:24;38.80;;;19.60;;
8604;SDS011;4340;52.516;13.468;2023-01-23T06:25:51;34.60;;;19.17;;
8604;SDS011;4340;52.516;13.468;2023-01-23T06:28:18;34.63;;;18.20;;
8604;SDS011;4340;52.516;13.468;2023-01-23T06:30:44;33.93;;;17.07;;
8604;SDS011;4340;52.516;13.468;2023-01-23T06:33:11;35.47;;;17.80;;
8604;SDS011;4340;52.516;13.468;2023-01-23T06:35:38;36.33;;;18.67;;
8604;SDS011;4340;52.516;13.468;2023-01-23T06:38:06;37.83;;;19.17;;
8604;SDS011;4340;52.516;13.468;2023-01-23T06:40:32;46.53;;;19.60;;
8604;SDS011;4340;52.516;13.468;2023-01-23T06:42:59;39.67;;;19.23;;
8604;SDS011;4340;52.516;13.468;2023-01-23T06:45:26;40.07;;;18.93;;
8604;SDS011;4340;52.516;13.468;2023-01-23T06:47:52;33.60;;;17.87;;
8604;SDS011;4340;52.516;13.468;2023-01-23T06:50:19;31.73;;;17.80;;
8604;SDS011;4340;52.516;13.468;2023-01-23T06:52:45;38.93;;;19.73;;
8604;SDS011;4340;52.516;13.468;2023-01-23T06:55:13;37.40;;;18.53;;
8604;SDS011;4340;52.516;13.468;2023-01-23T06:57:40;34.33;;;17.83;;
8604;SDS011;4340;52.516;13.468;2023-01-23T07:00:07;33.30;;;18.00;;
8604;SDS011;4340;52.516;13.468;2023-01-23T07:02:36;34.50;;;18.10;;
8604;SDS011;4340;52.516;13.468;2023-01-23T07:05:03;36.10;;;18.00;;
8604;SDS011;4340;52.516;13.468;2023-01-23T07:07:30;34.20;;;20.23;;
8604;SDS011;4340;52.516;13.468;2023-01-23T07:09:58;39.27;;;19.77;;
8604;SDS011;4340;52.516;13.468;2023-01-23T07:12:26;36.90;;;18.50;;
8604;SDS011;4340;52.516;13.468;2023-01-23T07:14:52;33.13;;;17.53;;
8604;SDS011;4340;52.516;13.468;2023-01-23T07:17:19;34.20;;;19.27;;
8604;SDS011;4340;52.516;13.468;2023-01-23T07:19:46;37.20;;;20.03;;
8604;SDS011;4340;52.516;13.468;2023-01-23T07:22:15;36.70;;;20.60;;
8604;SDS011;4340;52.516;13.468;2023-01-23T07:24:42;39.43;;;18.57;;
8604;SDS011;4340;52.516;13.468;2023-01-23T07:27:08;37.43;;;20.17;;
8604;SDS011;4340;52.516;13.468;2023-01-23T07:29:36;35.27;;;18.87;;
8604;SDS011;4340;52.516;13.468;2023-01-23T07:32:03;37.53;;;20.43;;
8604;SDS011;4340;52.516;13.468;2023-01-23T07:34:30;37.07;;;19.77;;
8604;SDS011;4340;52.516;13.468;2023-01-23T07:36:57;40.20;;;19.70;;
8604;SDS011;4340;52.516;13.468;2023-01-23T07:39:24;39.70;;;19.53;;
8604;SDS011;4340;52.516;13.468;2023-01-23T07:41:50;36.70;;;19.17;;
8604;SDS011;4340;52.516;13.468;2023-01-23T07:44:18;37.30;;;19.53;;
8604;SDS011;4340;52.516;13.468;2023-01-23T07:46:47;43.20;;;21.47;;
8604;SDS011;4340;52.516;13.468;2023-01-23T07:49:14;35.03;;;18.60;;
8604;SDS011;4340;52.516;13.468;2023-01-23T07:51:41;42.90;;;19.83;;
8604;SDS011;4340;52.516;13.468;2023-01-23T07:54:07;36.47;;;19.73;;
8604;SDS011;4340;52.516;13.468;2023-01-23T07:56:34;38.93;;;20.20;;
8604;SDS011;4340;52.516;13.468;2023-01-23T07:59:00;36.30;;;20.27;;
8604;SDS011;4340;52.516;13.468;2023-01-23T08:01:27;34.87;;;18.77;;
8604;SDS011;4340;52.516;13.468;2023-01-23T08:03:55;40.40;;;20.80;;
8604;SDS011;4340;52.516;13.468;2023-01-23T08:06:22;42.30;;;19.47;;
8604;SDS011;4340;52.516;13.468;2023-01-23T08:08:49;39.70;;;20.30;;
8604;SDS011;4340;52.516;13.468;2023-01-23T08:11:15;37.87;;;19.70;;
8604;SDS011;4340;52.516;13.468;2023-01-23T08:13:42;38.53;;;20.93;;
8604;SDS011;4340;52.516;13.468;2023-01-23T08:16:08;37.47;;;20.20;;
8604;SDS011;4340;52.516;13.468;2023-01-23T08:18:35;36.30;;;19.20;;
8604;SDS011;4340;52.516;13.468;2023-01-23T08:21:03;40.77;;;21.20;;
8604;SDS011;4340;52.516;13.468;2023-01-23T08:23:31;40.33;;;20.07;;
8604;SDS011;4340;52.516;13.468;2023-01-23T08:26:00;35.20;;;19.30;;
8604;SDS011;4340;52.516;13.468;2023-01-23T08:28:28;37.40;;;18.87;;
8604;SDS011;4340;52.516;13.468;2023-01-23T08:30:54;36.37;;;20.07;;
8604;SDS011;4340;52.516;13.468;2023-01-23T08:33:25;39.20;;;19.30;;
8604;SDS011;4340;52.516;13.468;2023-01-23T08:35:52;39.93;;;21.10;;
8604;SDS011;4340;52.516;13.468;2023-01-23T08:38:21;36.33;;;20.40;;
8604;SDS011;4340;52.516;13.468;2023-01-23T08:40:49;40.33;;;21.00;;
8604;SDS011;4340;52.516;13.468;2023-01-23T08:43:17;38.83;;;20.10;;
8604;SDS011;4340;52.516;13.468;2023-01-23T08:45:46;37.03;;;19.70;;
8604;SDS011;4340;52.516;13.468;2023-01-23T08:48:14;38.30;;;19.90;;
8604;SDS011;4340;52.516;13.468;2023-01-23T08:50:41;40.23;;;20.40;;
8604;SDS011;4340;52.516;13.468;2023-01-23T08:53:07;39.00;;;20.43;;
8604;SDS011;4340;52.516;13.468;2023-01-23T08:55:35;34.97;;;20.00;;
8604;SDS011;4340;52.516;13.468;2023-01-23T08:58:03;37.80;;;19.93;;
8604;SDS011;4340;52.516;13.468;2023-01-23T09:00:29;34.83;;;19.10;;
8604;SDS011;4340;52.516;13.468;2023-01-23T09:02:57;36.03;;;19.60;;
8604;SDS011;4340;52.516;13.468;2023-01-23T09:05:24;36.27;;;19.30;;
8604;SDS011;4340;52.516;13.468;2023-01-23T09:07:51;37.17;;;19.33;;
8604;SDS011;4340;52.516;13.468;2023-01-23T09:10:18;36.67;;;19.63;;
8604;SDS011;4340;52.516;13.468;2023-01-23T09:12:46;37.30;;;19.93;;
8604;SDS011;4340;52.516;13.468;2023-01-23T09:15:12;41.73;;;19.87;;
8604;SDS011;4340;52.516;13.468;2023-01-23T09:17:39;32.83;;;18.73;;
8604;SDS011;4340;52.516;13.468;2023-01-23T09:20:06;35.63;;;19.63;;
8604;SDS011;4340;52.516;13.468;2023-01-23T09:22:34;36.03;;;18.93;;
8604;SDS011;4340;52.516;13.468;2023-01-23T09:25:01;36.77;;;20.17;;
8604;SDS011;4340;52.516;13.468;2023-01-23T09:27:27;38.83;;;18.67;;
8604;SDS011;4340;52.516;13.468;2023-01-23T09:29:55;36.57;;;20.00;;
8604;SDS011;4340;52.516;13.468;2023-01-23T09:32:22;36.73;;;18.80;;
8604;SDS011;4340;52.516;13.468;2023-01-23T09:34:48;37.20;;;19.43;;
8604;SDS011;4340;52.516;13.468;2023-01-23T09:37:15;35.70;;;19.50;;
8604;SDS011;4340;52.516;13.468;2023-01-23T09:39:42;37.60;;;19.40;;
8604;SDS011;4340;52.516;13.468;2023-01-23T09:42:10;37.93;;;21.10;;
8604;SDS011;4340;52.516;13.468;2023-01-23T09:44:43;37.73;;;19.50;;
8604;SDS011;4340;52.516;13.468;2023-01-23T09:47:15;35.23;;;19.53;;
8604;SDS011;4340;52.516;13.468;2023-01-23T09:49:45;39.57;;;19.50;;
8604;SDS011;4340;52.516;13.468;2023-01-23T09:52:17;39.60;;;21.80;;
8604;SDS011;4340;52.516;13.468;2023-01-23T09:54:46;34.63;;;18.57;;
8604;SDS011;4340;52.516;13.468;2023-01-23T09:57:15;37.27;;;20.93;;
8604;SDS011;4340;52.516;13.468;2023-01-23T09:59:45;33.27;;;19.10;;
8604;SDS011;4340;52.516;13.468;2023-01-23T10:02:18;36.80;;;20.30;;
8604;SDS011;4340;52.516;13.468;2023-01-23T10:04:46;35.93;;;19.30;;
8604;SDS011;4340;52.516;13.468;2023-01-23T10:07:19;37.93;;;19.93;;
8604;SDS011;4340;52.516;13.468;2023-01-23T10:10:00;32.77;;;19.47;;
8604;SDS011;4340;52.516;13.468;2023-01-23T10:12:38;33.60;;;19.27;;
8604;SDS011;4340;52.516;13.468;2023-01-23T10:15:18;36.10;;;19.00;;
8604;SDS011;4340;52.516;13.468;2023-01-23T10:17:54;36.07;;;18.90;;
8604;SDS011;4340;52.516;13.468;2023-01-23T10:20:45;34.70;;;18.33;;
8604;SDS011;4340;52.516;13.468;2023-01-23T10:23:19;37.73;;;19.07;;
8604;SDS011;4340;52.516;13.468;2023-01-23T10:26:01;32.80;;;18.97;;
8604;SDS011;4340;52.516;13.468;2023-01-23T10:28:31;33.13;;;18.50;;
8604;SDS011;4340;52.516;13.468;2023-01-23T10:31:02;33.13;;;19.47;;
8604;SDS011;4340;52.516;13.468;2023-01-23T10:33:36;35.03;;;18.10;;
8604;SDS011;4340;52.516;13.468;2023-01-23T10:36:10;36.40;;;20.30;;
8604;SDS011;4340;52.516;13.468;2023-01-23T10:38:47;33.13;;;18.67;;
8604;SDS011;4340;52.516;13.468;2023-01-23T10:41:19;34.13;;;18.57;;
8604;SDS011;4340;52.516;13.468;2023-01-23T10:43:46;34.17;;;19.63;;
8604;SDS011;4340;52.516;13.468;2023-01-23T10:46:16;34.40;;;19.20;;
8604;SDS011;4340;52.516;13.468;2023-01-23T10:48:45;36.40;;;19.83;;
8604;SDS011;4340;52.516;13.468;2023-01-23T10:51:43;43.53;;;18.90;;
8604;SDS011;4340;52.516;13.468;2023-01-23T10:54:13;33.20;;;17.97;;
8604;SDS011;4340;52.516;13.468;2023-01-23T10:56:48;40.53;;;19.90;;
8604;SDS011;4340;52.516;13.468;2023-01-23T10:59:23;34.23;;;19.87;;
8604;SDS011;4340;52.516;13.468;2023-01-23T11:01:57;34.97;;;19.53;;
8604;SDS011;4340;52.516;13.468;2023-01-23T11:04:28;36.30;;;18.40;;
8604;SDS011;4340;52.516;13.468;2023-01-23T11:07:01;35.47;;;18.43;;
8604;SDS011;4340;52.516;13.468;2023-01-23T11:09:30;32.07;;;19.40;;
8604;SDS011;4340;52.516;13.468;2023-01-23T11:12:01;33.80;;;18.80;;
8604;SDS011;4340;52.516;13.468;2023-01-23T11:14:29;38.97;;;19.27;;
8604;SDS011;4340;52.516;13.468;2023-01-23T11:17:00;35.77;;;19.60;;
8604;SDS011;4340;52.516;13.468;2023-01-23T11:19:31;33.00;;;18.67;;
8604;SDS011;4340;52.516;13.468;2023-01-23T11:21:58;33.50;;;18.90;;
8604;SDS011;4340;52.516;13.468;2023-01-23T11:24:27;34.97;;;19.63;;
8604;SDS011;4340;52.516;13.468;2023-01-23T11:26:57;32.30;;;19.03;;
8604;SDS011;4340;52.516;13.468;2023-01-23T11:29:25;37.17;;;19.80;;
8604;SDS011;4340;52.516;13.468;2023-01-23T11:31:54;34.50;;;19.33;;
8604;SDS011;4340;52.516;13.468;2023-01-23T11:34:26;34.37;;;18.50;;
8604;SDS011;4340;52.516;13.468;2023-01-23T11:37:01;34.37;;;19.20;;
8604;SDS011;4340;52.516;13.468;2023-01-23T11:39:36;33.53;;;19.60;;
8604;SDS011;4340;52.516;13.468;2023-01-23T11:42:10;35.30;;;18.60;;
8604;SDS011;4340;52.516;13.468;2023-01-23T11:44:37;35.70;;;18.97;;
8604;SDS011;4340;52.516;13.468;2023-01-23T11:47:10;36.77;;;19.77;;
8604;SDS011;4340;52.516;13.468;2023-01-23T11:49:59;38.50;;;20.20;;
8604;SDS011;4340;52.516;13.468;2023-01-23T11:52:40;35.10;;;18.00;;
8604;SDS011;4340;52.516;13.468;2023-01-23T11:55:23;34.17;;;18.50;;
8604;SDS011;4340;52.516;13.468;2023-01-23T11:58:00;30.43;;;16.70;;
8604;SDS011;4340;52.516;13.468;2023-01-23T12:00:33;34.87;;;17.80;;
8604;SDS011;4340;52.516;13.468;2023-01-23T12:09:14;32.57;;;18.33;;
8604;SDS011;4340;52.516;13.468;2023-01-23T12:11:48;25.40;;;15.63;;
8604;SDS011;4340;52.516;13.468;2023-01-23T12:14:26;34.83;;;16.37;;
8604;SDS011;4340;52.516;13.468;2023-01-23T12:17:02;35.53;;;17.17;;
8604;SDS011;4340;52.516;13.468;2023-01-23T12:19:38;30.90;;;17.67;;
8604;SDS011;4340;52.516;13.468;2023-01-23T12:22:21;27.93;;;17.20;;
8604;SDS011;4340;52.516;13.468;2023-01-23T12:24:59;26.70;;;16.17;;
8604;SDS011;4340;52.516;13.468;2023-01-23T12:27:39;29.73;;;16.90;;
8604;SDS011;4340;52.516;13.468;2023-01-23T12:30:26;29.93;;;15.10;;
8604;SDS011;4340;52.516;13.468;2023-01-23T12:33:13;23.73;;;14.67;;
8604;SDS011;4340;52.516;13.468;2023-01-23T12:35:51;22.60;;;13.13;;
8604;SDS011;4340;52.516;13.468;2023-01-23T12:38:28;25.43;;;14.67;;
8604;SDS011;4340;52.516;13.468;2023-01-23T12:41:05;26.00;;;15.63;;
8604;SDS011;4340;52.516;13.468;2023-01-23T12:43:37;26.10;;;14.40;;
8604;SDS011;4340;52.516;13.468;2023-01-23T12:46:10;27.90;;;15.70;;
8604;SDS011;4340;52.516;13.468;2023-01-23T12:48:42;22.07;;;14.50;;
8604;SDS011;4340;52.516;13.468;2023-01-23T12:51:15;21.67;;;14.03;;
8604;SDS011;4340;52.516;13.468;2023-01-23T12:53:47;22.70;;;13.93;;
8604;SDS011;4340;52.516;13.468;2023-01-23T12:56:18;23.03;;;13.40;;
8604;SDS011;4340;52.516;13.468;2023-01-23T12:58:50;24.63;;;14.60;;
8604;SDS011;4340;52.516;13.468;2023-01-23T13:01:32;26.17;;;13.80;;
8604;SDS011;4340;52.516;13.468;2023-01-23T13:04:09;22.93;;;14.00;;
8604;SDS011;4340;52.516;13.468;2023-01-23T13:06:48;22.03;;;13.70;;
8604;SDS011;4340;52.516;13.468;2023-01-23T13:09:23;22.37;;;13.83;;
8604;SDS011;4340;52.516;13.468;2023-01-23T13:12:03;26.43;;;15.27;;
8604;SDS011;4340;52.516;13.468;2023-01-23T13:14:42;24.23;;;13.50;;
8604;SDS011;4340;52.516;13.468;2023-01-23T13:17:25;23.10;;;14.03;;
8604;SDS011;4340;52.516;13.468;2023-01-23T13:20:06;21.73;;;15.00;;
8604;SDS011;4340;52.516;13.468;2023-01-23T13:23:17;25.47;;;14.60;;
8604;SDS011;4340;52.516;13.468;2023-01-23T13:26:20;23.30;;;14.00;;
8604;SDS011;4340;52.516;13.468;2023-01-23T13:28:55;28.27;;;14.17;;
8604;SDS011;4340;52.516;13.468;2023-01-23T13:31:31;21.70;;;13.57;;
8604;SDS011;4340;52.516;13.468;2023-01-23T13:34:00;22.60;;;12.20;;
8604;SDS011;4340;52.516;13.468;2023-01-23T13:36:28;23.13;;;13.70;;
8604;SDS011;4340;52.516;13.468;2023-01-23T13:39:04;30.93;;;13.63;;
8604;SDS011;4340;52.516;13.468;2023-01-23T13:45:22;22.90;;;12.60;;
8604;SDS011;4340;52.516;13.468;2023-01-23T13:48:04;24.60;;;13.33;;
8604;SDS011;4340;52.516;13.468;2023-01-23T13:51:10;25.10;;;14.37;;
8604;SDS011;4340;52.516;13.468;2023-01-23T13:53:43;22.90;;;13.87;;
8604;SDS011;4340;52.516;13.468;2023-01-23T13:56:28;23.20;;;14.07;;
8604;SDS011;4340;52.516;13.468;2023-01-23T13:59:07;20.47;;;13.30;;
8604;SDS011;4340;52.516;13.468;2023-01-23T14:01:43;20.50;;;13.33;;
8604;SDS011;4340;52.516;13.468;2023-01-23T14:04:33;24.30;;;13.40;;
8604;SDS011;4340;52.516;13.468;2023-01-23T14:07:24;25.20;;;13.73;;
8604;SDS011;4340;52.516;13.468;2023-01-23T14:10:21;21.37;;;12.27;;
8604;SDS011;4340;52.516;13.468;2023-01-23T14:13:00;24.30;;;13.30;;
8604;SDS011;4340;52.516;13.468;2023-01-23T14:15:28;25.80;;;14.70;;
8604;SDS011;4340;52.516;13.468;2023-01-23T14:18:25;21.33;;;13.60;;
8604;SDS011;4340;52.516;13.468;2023-01-23T14:20:58;25.40;;;13.97;;
8604;SDS011;4340;52.516;13.468;2023-01-23T14:23:27;26.67;;;12.27;;
8604;SDS011;4340;52.516;13.468;2023-01-23T14:26:00;37.17;;;19.67;;
8604;SDS011;4340;52.516;13.468;2023-01-23T14:28:28;21.00;;;12.40;;
8604;SDS011;4340;52.516;13.468;2023-01-23T14:30:55;22.53;;;12.33;;
8604;SDS011;4340;52.516;13.468;2023-01-23T14:33:23;26.33;;;15.10;;
8604;SDS011;4340;52.516;13.468;2023-01-23T14:35:50;25.00;;;12.63;;
8604;SDS011;4340;52.516;13.468;2023-01-23T14:38:22;21.17;;;12.73;;
8604;SDS011;4340;52.516;13.468;2023-01-23T14:40:53;20.60;;;12.20;;
8604;SDS011;4340;52.516;13.468;2023-01-23T14:43:21;19.90;;;12.70;;
8604;SDS011;4340;52.516;13.468;2023-01-23T14:45:53;20.00;;;11.50;;
8604;SDS011;4340;52.516;13.468;2023-01-23T14:48:24;20.27;;;12.90;;
8604;SDS011;4340;52.516;13.468;2023-01-23T14:50:59;25.03;;;12.00;;
8604;SDS011;4340;52.516;13.468;2023-01-23T14:53:37;22.00;;;11.53;;
8604;SDS011;4340;52.516;13.468;2023-01-23T14:56:05;24.80;;;14.67;;
8604;SDS011;4340;52.516;13.468;2023-01-23T14:58:35;19.73;;;12.30;;
8604;SDS011;4340;52.516;13.468;2023-01-23T15:01:04;22.77;;;12.80;;